Alfred, Maine
Current Conditions -  °F | °C
As of 1:35 AM on Monday 26 Jan 2015 (Local Time) from KSFM Reporting Station
Clear Clear  
Wind Chill: -14°   Ceiling: Unl
Heat Index: -14°   Visibility: 10mi
Dew Point: -22°   Wind: 3mph
Humidity: 52%   Direction: 290°WNW
Pressure: 30.07"   Gusts: NA
Location:  43.48°N, 70.72°W
Report Text: KSFM 260635Z AUTO 29003KT 10SM CLR M14/M22 A3007 RMK AO1
Loading
Personal Weather Stations






























Interactive Weather Map New forecast layout! Learn more

10-Day Weather Forecast

Advertisements
Track Severe Weather on mobile